Time;durP1;ratioP1;P1;durP2;ratioP2;P2;SDS_P1;SDS_P2;PMS_P1;PMS_P2;Temp;Humidity;BMP_temperature;BMP_pressure;BME280_temperature;BME280_humidity;BME280_pressure;Samples;Min_cycle;Max_cycle;Signal;HPM_P1;HPM_P2
2021/01/21 00:01:19;;;;;;;10.65;5.30;;;179.70;1920.00;;;;;;4918351;29;20042;-69
2021/01/21 00:03:46;;;;;;;8.63;5.57;;;179.70;1920.00;;;;;;4911865;29;20432;-70
2021/01/21 00:06:12;;;;;;;8.05;5.20;;;179.70;1920.00;;;;;;4918446;29;20051;-70
2021/01/21 00:08:38;;;;;;;8.30;5.45;;;179.70;1894.40;;;;;;4918349;29;20036;-69
2021/01/21 00:11:03;;;;;;;9.55;5.35;;;179.70;1894.40;;;;;;4917659;29;20036;-69
2021/01/21 00:13:29;;;;;;;9.05;5.75;;;179.70;1894.40;;;;;;4918865;29;20090;-69
2021/01/21 00:15:55;;;;;;;8.40;5.40;;;179.70;1894.40;;;;;;4917831;29;20040;-70
2021/01/21 00:18:21;;;;;;;9.20;5.25;;;179.70;1894.40;;;;;;4918696;29;20038;-70
2021/01/21 00:20:47;;;;;;;9.25;5.40;;;179.70;1894.40;;;;;;4918071;29;20028;-70
2021/01/21 00:23:12;;;;;;;8.73;5.20;;;179.70;1894.40;;;;;;4918172;29;20375;-69
2021/01/21 00:25:41;;;;;;;6.82;4.97;;;179.70;1894.40;;;;;;4916670;29;20386;-70
2021/01/21 00:28:07;;;;;;;7.95;5.22;;;179.70;1894.40;;;;;;4917064;29;20079;-70
2021/01/21 00:30:33;;;;;;;6.65;4.53;;;179.70;1894.40;;;;;;4917144;29;20063;-69
2021/01/21 00:32:58;;;;;;;10.18;6.28;;;179.70;1894.40;;;;;;4918766;29;20032;-70
2021/01/21 00:35:24;;;;;;;8.82;5.80;;;179.70;1894.40;;;;;;4917483;29;20099;-69
2021/01/21 00:37:50;;;;;;;7.63;4.75;;;179.70;1894.40;;;;;;4915212;29;20034;-72
2021/01/21 00:40:15;;;;;;;7.88;5.60;;;179.70;1894.40;;;;;;4917478;29;20042;-72
2021/01/21 00:42:41;;;;;;;8.82;6.00;;;179.70;1894.40;;;;;;4918173;29;20036;-70
2021/01/21 00:45:08;;;;;;;6.47;4.30;;;179.70;1894.40;;;;;;4917097;29;20111;-71
2021/01/21 00:47:33;;;;;;;6.80;4.07;;;179.60;1894.40;;;;;;4918640;29;20119;-69
2021/01/21 00:50:00;;;;;;;6.22;4.03;;;179.70;1894.40;;;;;;4899119;29;20127;-70
2021/01/21 00:52:25;;;;;;;6.13;4.13;;;179.70;1894.40;;;;;;4917636;29;20067;-69
2021/01/21 00:54:51;;;;;;;5.80;4.00;;;179.60;1894.40;;;;;;4917779;29;20074;-70
2021/01/21 00:57:17;;;;;;;6.65;3.92;;;179.60;1894.40;;;;;;4917610;29;20051;-69
2021/01/21 00:59:42;;;;;;;6.70;4.10;;;179.60;1894.40;;;;;;4916526;29;20131;-69
2021/01/21 01:02:08;;;;;;;6.60;3.78;;;179.60;1894.40;;;;;;4918788;29;20068;-70
2021/01/21 01:04:34;;;;;;;6.05;3.92;;;179.70;1894.40;;;;;;4916187;29;20133;-70
2021/01/21 01:06:59;;;;;;;7.65;4.18;;;179.60;1894.40;;;;;;4915881;29;20123;-70
2021/01/21 01:09:25;;;;;;;6.25;4.00;;;179.60;1894.40;;;;;;4917925;29;20032;-69
2021/01/21 01:11:51;;;;;;;5.82;3.97;;;179.60;1894.40;;;;;;4916824;29;20111;-70
2021/01/21 01:14:16;;;;;;;5.65;4.20;;;179.60;1894.40;;;;;;4917994;29;20414;-69
2021/01/21 01:16:42;;;;;;;7.45;4.10;;;179.60;1894.40;;;;;;4915742;29;20107;-70
2021/01/21 01:19:08;;;;;;;6.15;4.22;;;179.60;1894.40;;;;;;4917614;29;20055;-72
2021/01/21 01:21:34;;;;;;;7.50;3.88;;;179.60;1894.40;;;;;;4917826;29;20048;-70
2021/01/21 01:23:59;;;;;;;7.03;4.10;;;179.60;1894.40;;;;;;4917633;29;20032;-70
2021/01/21 01:26:25;;;;;;;7.70;4.05;;;179.60;1894.40;;;;;;4915336;29;20398;-70
2021/01/21 01:28:51;;;;;;;5.78;3.40;;;179.60;1894.40;;;;;;4917152;29;20028;-69
2021/01/21 01:31:16;;;;;;;6.78;3.65;;;179.60;1894.40;;;;;;4915941;29;20123;-69
2021/01/21 01:33:43;;;;;;;5.88;3.55;;;179.60;1894.40;;;;;;4918836;29;20031;-70
2021/01/21 01:36:09;;;;;;;6.28;3.80;;;179.60;1894.40;;;;;;4897773;29;20376;-69
2021/01/21 01:38:36;;;;;;;5.90;3.72;;;179.60;1894.40;;;;;;4899138;29;20032;-70
2021/01/21 01:41:02;;;;;;;5.18;3.58;;;179.60;1894.40;;;;;;4917291;29;20024;-70
2021/01/21 01:43:27;;;;;;;4.78;3.40;;;179.70;1894.40;;;;;;4904767;29;20033;-70
2021/01/21 01:45:54;;;;;;;4.75;3.03;;;179.70;1868.80;;;;;;4915529;29;20032;-70
2021/01/21 01:48:21;;;;;;;5.07;3.30;;;179.70;1894.40;;;;;;4917280;29;20032;-70
2021/01/21 01:50:47;;;;;;;4.05;2.97;;;179.70;1894.40;;;;;;4912351;29;20039;-70
2021/01/21 01:53:13;;;;;;;4.43;2.88;;;179.70;1868.80;;;;;;4916866;29;20044;-70
2021/01/21 01:55:40;;;;;;;7.03;3.47;;;179.70;1868.80;;;;;;4913998;29;20516;-69
2021/01/21 01:58:09;;;;;;;5.40;3.17;;;179.70;1868.80;;;;;;4916784;29;20080;-70
2021/01/21 02:00:36;;;;;;;4.38;2.88;;;179.70;1868.80;;;;;;4914030;29;20031;-69
2021/01/21 02:03:02;;;;;;;4.38;2.80;;;179.70;1868.80;;;;;;4916267;29;20510;-70
2021/01/21 02:05:27;;;;;;;3.30;2.70;;;179.70;1868.80;;;;;;4915267;29;20028;-70
2021/01/21 02:07:53;;;;;;;5.75;2.88;;;179.80;1868.80;;;;;;4915184;29;20036;-70
2021/01/21 02:10:20;;;;;;;3.83;2.75;;;179.70;1868.80;;;;;;4916042;29;20068;-70
2021/01/21 02:13:23;;;;;;;4.80;2.80;;;180.00;1868.80;;;;;;4916652;29;20024;-70
2021/01/21 02:16:37;;;;;;;4.70;2.53;;;179.80;1868.80;;;;;;4913251;29;20549;-70
2021/01/21 02:19:38;;;;;;;6.45;3.00;;;179.80;1868.80;;;;;;4906463;29;20043;-70
2021/01/21 02:22:22;;;;;;;4.63;2.85;;;179.90;1868.80;;;;;;4915905;29;20458;-69
2021/01/21 02:25:15;;;;;;;3.95;2.42;;;179.90;1868.80;;;;;;4917331;29;20040;-70
2021/01/21 02:28:06;;;;;;;3.15;2.22;;;179.90;1868.80;;;;;;4913953;29;20028;-70
2021/01/21 02:31:03;;;;;;;3.85;2.30;;;179.90;1868.80;;;;;;4833491;29;20715;-70
2021/01/21 02:33:47;;;;;;;3.88;2.35;;;179.90;1868.80;;;;;;4838473;29;20128;-69
2021/01/21 02:36:20;;;;;;;;;;;179.90;1868.80;;;;;;4838283;29;20070;-70
2021/01/21 02:38:46;;;;;;;3.33;2.17;;;180.00;1843.20;;;;;;4838123;29;19913;-70
2021/01/21 02:41:14;;;;;;;2.53;2.05;;;180.00;1843.20;;;;;;4837531;29;20038;-69
2021/01/21 02:43:40;;;;;;;3.30;2.20;;;180.00;1843.20;;;;;;4839985;29;20052;-69
2021/01/21 02:46:05;;;;;;;4.63;2.35;;;180.00;1843.20;;;;;;4838519;29;20489;-70
2021/01/21 02:48:33;;;;;;;2.80;2.17;;;180.10;1843.20;;;;;;4839746;29;20041;-70
2021/01/21 02:51:14;;;;;;;5.40;3.67;;;180.10;1817.60;;;;;;4836806;29;20040;-69
2021/01/21 02:53:41;;;;;;;6.82;4.07;;;180.10;1817.60;;;;;;4839315;29;20186;-70
2021/01/21 02:56:12;;;;;;;5.78;3.22;;;180.10;1817.60;;;;;;4838879;29;20477;-71
2021/01/21 02:58:45;;;;;;;6.63;4.38;;;180.10;1792.00;;;;;;4838995;29;20038;-70
2021/01/21 03:01:14;;;;;;;3.75;2.70;;;180.10;1817.60;;;;;;4837807;29;20048;-70
2021/01/21 03:03:41;;;;;;;4.65;2.90;;;180.10;1817.60;;;;;;4838771;29;20045;-70
2021/01/21 03:06:09;;;;;;;5.15;3.08;;;180.00;1817.60;;;;;;4837404;29;20026;-69
2021/01/21 03:08:35;;;;;;;2.90;2.40;;;180.00;1817.60;;;;;;4910910;29;20047;-69
2021/01/21 03:11:10;;;;;;;6.03;3.28;;;180.10;1817.60;;;;;;4913463;29;20044;-70
2021/01/21 03:13:43;;;;;;;3.83;2.60;;;180.00;1817.60;;;;;;4915584;29;20050;-69
2021/01/21 03:16:09;;;;;;;5.28;2.67;;;180.00;1843.20;;;;;;4920528;29;20390;-69
2021/01/21 03:18:35;;;;;;;5.50;3.00;;;180.00;1817.60;;;;;;4920995;29;20020;-70
2021/01/21 03:21:01;;;;;;;5.10;3.50;;;179.90;1843.20;;;;;;4920205;29;20074;-70
2021/01/21 03:23:27;;;;;;;4.18;2.83;;;179.90;1843.20;;;;;;4921900;29;20112;-70
2021/01/21 03:25:53;;;;;;;4.15;2.80;;;179.90;1868.80;;;;;;4921600;29;20054;-70
2021/01/21 03:28:19;;;;;;;4.38;3.28;;;179.90;1868.80;;;;;;4922133;29;20534;-70
2021/01/21 03:30:45;;;;;;;4.55;3.15;;;179.90;1868.80;;;;;;4921798;29;20039;-70
2021/01/21 03:33:10;;;;;;;4.13;2.70;;;179.90;1868.80;;;;;;4920641;29;20471;-70
2021/01/21 03:35:36;;;;;;;3.83;2.35;;;179.90;1868.80;;;;;;4921642;29;20051;-70
2021/01/21 03:38:02;;;;;;;3.42;2.60;;;180.00;1868.80;;;;;;4920742;29;20032;-70
2021/01/21 03:40:27;;;;;;;4.80;2.60;;;180.00;1868.80;;;;;;4919224;29;20053;-70
2021/01/21 03:42:53;;;;;;;5.13;2.63;;;180.00;1868.80;;;;;;4919685;29;20024;-69
2021/01/21 03:45:20;;;;;;;5.03;2.78;;;180.00;1868.80;;;;;;4921536;29;20064;-70
2021/01/21 03:47:46;;;;;;;4.80;2.95;;;180.00;1868.80;;;;;;4920998;29;20114;-68
2021/01/21 03:50:12;;;;;;;3.22;2.40;;;180.00;1868.80;;;;;;4923227;29;20471;-70
2021/01/21 03:52:38;;;;;;;5.43;2.40;;;180.00;1868.80;;;;;;4919401;29;20044;-69
2021/01/21 03:55:05;;;;;;;2.88;2.50;;;180.00;1868.80;;;;;;4921084;29;20036;-69
2021/01/21 03:57:30;;;;;;;4.32;2.72;;;180.00;1868.80;;;;;;4920865;29;20024;-71
2021/01/21 03:59:56;;;;;;;4.22;2.65;;;180.00;1868.80;;;;;;4921600;29;20034;-69
2021/01/21 04:02:22;;;;;;;3.95;2.67;;;180.00;1894.40;;;;;;4918218;29;20070;-70
2021/01/21 04:04:47;;;;;;;5.80;2.60;;;180.00;1894.40;;;;;;4921055;29;20072;-69
2021/01/21 04:07:13;;;;;;;4.63;2.53;;;180.00;1894.40;;;;;;4918536;29;20036;-70
2021/01/21 04:09:39;;;;;;;4.43;2.92;;;180.10;1868.80;;;;;;4920957;29;20047;-69
2021/01/21 04:12:05;;;;;;;5.00;3.38;;;180.10;1868.80;;;;;;4920427;29;20028;-71
2021/01/21 04:14:32;;;;;;;4.07;2.70;;;204.80;1868.80;;;;;;4920210;29;20035;-69
2021/01/21 04:16:57;;;;;;;4.28;3.03;;;204.80;1843.20;;;;;;4903513;29;20111;-70
2021/01/21 04:19:23;;;;;;;6.03;3.15;;;204.80;1843.20;;;;;;4920467;29;20020;-69
2021/01/21 04:21:50;;;;;;;3.33;2.60;;;204.80;1868.80;;;;;;4917276;29;20031;-69
2021/01/21 04:24:16;;;;;;;4.13;2.92;;;204.80;1868.80;;;;;;4920267;29;20079;-70
2021/01/21 04:26:41;;;;;;;4.50;2.90;;;204.80;1868.80;;;;;;4917982;29;20051;-70
2021/01/21 04:29:07;;;;;;;4.88;2.88;;;204.80;1868.80;;;;;;4917697;29;20063;-70
2021/01/21 04:31:33;;;;;;;5.30;3.80;;;204.80;1868.80;;;;;;4918145;29;20036;-70
2021/01/21 04:33:58;;;;;;;5.43;2.97;;;180.10;1868.80;;;;;;4916938;29;20086;-70
2021/01/21 04:36:24;;;;;;;12.98;7.68;;;180.10;1868.80;;;;;;4916678;29;20043;-68
2021/01/21 04:38:49;;;;;;;5.05;3.30;;;180.10;1868.80;;;;;;4916881;29;20028;-70
2021/01/21 04:41:16;;;;;;;5.47;3.00;;;180.10;1868.80;;;;;;4917913;29;20202;-70
2021/01/21 04:43:42;;;;;;;22.58;14.48;;;180.10;1868.80;;;;;;4917506;29;20079;-69
2021/01/21 04:46:08;;;;;;;5.22;4.13;;;180.10;1868.80;;;;;;4917326;29;20028;-70
2021/01/21 04:48:35;;;;;;;6.53;3.65;;;180.10;1868.80;;;;;;4917078;29;20104;-70
2021/01/21 04:51:02;;;;;;;7.32;4.15;;;180.10;1868.80;;;;;;4917271;29;20066;-69
2021/01/21 04:53:28;;;;;;;7.90;4.68;;;180.10;1868.80;;;;;;4916130;29;20056;-70
2021/01/21 04:55:58;;;;;;;9.55;5.15;;;180.10;1868.80;;;;;;4917447;29;20119;-70
2021/01/21 04:58:38;;;;;;;8.30;4.63;;;180.00;1894.40;;;;;;4913123;29;20025;-69
2021/01/21 05:01:04;;;;;;;6.53;3.97;;;180.00;1894.40;;;;;;4899995;29;20028;-70
2021/01/21 05:03:29;;;;;;;8.55;4.10;;;180.00;1894.40;;;;;;4916213;29;20028;-69
2021/01/21 05:05:56;;;;;;;6.93;3.83;;;180.00;1868.80;;;;;;4916428;29;20036;-70
2021/01/21 05:08:23;;;;;;;7.15;4.03;;;180.00;1894.40;;;;;;4915905;29;20032;-70
2021/01/21 05:10:52;;;;;;;6.72;4.15;;;180.00;1894.40;;;;;;4915826;29;20454;-69
2021/01/21 05:13:18;;;;;;;7.47;4.70;;;179.90;1894.40;;;;;;4895202;29;20064;-68
2021/01/21 05:15:44;;;;;;;7.70;4.32;;;179.90;1920.00;;;;;;4915294;29;20036;-70
2021/01/21 05:18:12;;;;;;;6.47;4.32;;;179.80;1920.00;;;;;;4914501;29;20083;-69
2021/01/21 05:20:38;;;;;;;6.30;4.30;;;179.80;1920.00;;;;;;4916692;29;20409;-69
2021/01/21 05:23:05;;;;;;;6.35;4.30;;;179.80;1920.00;;;;;;4918407;29;20097;-69
2021/01/21 05:25:31;;;;;;;7.00;3.67;;;179.80;1920.00;;;;;;4916969;29;20044;-70
2021/01/21 05:27:59;;;;;;;8.05;4.82;;;179.80;1920.00;;;;;;4917389;29;20020;-72
2021/01/21 05:30:29;;;;;;;7.55;4.38;;;179.80;1920.00;;;;;;4913191;29;20403;-70
2021/01/21 05:32:56;;;;;;;5.95;4.10;;;179.80;1920.00;;;;;;4923762;29;20040;-70
2021/01/21 05:35:26;;;;;;;6.32;3.65;;;179.80;1920.00;;;;;;4919517;29;20627;-68
2021/01/21 05:37:56;;;;;;;7.30;4.05;;;179.80;1920.00;;;;;;4913894;29;20027;-70
2021/01/21 05:40:26;;;;;;;7.03;4.20;;;179.80;1920.00;;;;;;4906409;29;20044;-66
2021/01/21 05:42:54;;;;;;;10.38;4.45;;;179.80;1920.00;;;;;;4909175;29;20032;-66
2021/01/21 05:45:21;;;;;;;11.70;5.50;;;179.80;1894.40;;;;;;4915356;29;20047;-65
2021/01/21 05:48:13;;;;;;;7.30;4.50;;;179.80;1920.00;;;;;;4911048;29;20027;-75
2021/01/21 05:50:39;;;;;;;8.95;5.45;;;179.80;1894.40;;;;;;4909651;29;20056;-65
2021/01/21 05:53:10;;;;;;;7.53;4.38;;;179.80;1894.40;;;;;;4915661;29;20403;-83
2021/01/21 05:55:37;;;;;;;6.10;3.95;;;179.80;1920.00;;;;;;4914354;29;20074;-79
2021/01/21 05:58:04;;;;;;;5.32;3.92;;;179.80;1894.40;;;;;;4919142;29;20019;-71
2021/01/21 06:00:32;;;;;;;6.78;4.43;;;179.80;1920.00;;;;;;4908569;29;20036;-65
2021/01/21 06:02:59;;;;;;;8.35;4.70;;;179.80;1920.00;;;;;;4914664;29;20115;-66
2021/01/21 06:05:25;;;;;;;7.60;4.60;;;179.70;1920.00;;;;;;4916703;29;20036;-67
2021/01/21 06:07:52;;;;;;;7.00;4.65;;;179.80;1920.00;;;;;;4916266;29;20058;-65
2021/01/21 06:10:19;;;;;;;12.27;6.43;;;179.70;1920.00;;;;;;4916009;29;20197;-66
2021/01/21 06:12:53;;;;;;;8.48;4.30;;;179.70;1920.00;;;;;;4916248;29;20111;-66
2021/01/21 06:15:19;;;;;;;11.98;6.57;;;179.70;1920.00;;;;;;4915853;29;20458;-66
2021/01/21 06:17:47;;;;;;;9.88;6.13;;;179.70;1920.00;;;;;;4916772;29;20020;-66
2021/01/21 06:20:14;;;;;;;9.18;5.93;;;179.70;1920.00;;;;;;4898335;29;20040;-66
2021/01/21 06:22:46;;;;;;;8.00;4.50;;;179.70;1920.00;;;;;;4916725;29;20024;-66
2021/01/21 06:25:16;;;;;;;7.68;4.40;;;179.80;1894.40;;;;;;4915598;29;20439;-66
2021/01/21 06:27:43;;;;;;;6.18;4.03;;;179.80;1894.40;;;;;;4915904;29;20542;-66
2021/01/21 06:30:11;;;;;;;7.65;4.30;;;179.80;1894.40;;;;;;4912946;29;20105;-65
2021/01/21 06:32:45;;;;;;;6.72;4.20;;;179.90;1894.40;;;;;;4912204;29;20075;-66
2021/01/21 06:35:15;;;;;;;9.70;4.43;;;179.90;1894.40;;;;;;4914376;29;20281;-64
2021/01/21 06:37:44;;;;;;;7.15;4.68;;;180.00;2124.80;;;;;;4911712;29;20024;-65
2021/01/21 06:40:13;;;;;;;6.45;4.50;;;205.10;2048.00;;;;;;4914395;29;20030;-88
2021/01/21 06:42:55;;;;;;;7.60;4.68;;;205.00;1843.20;;;;;;4912336;29;20024;-82
2021/01/21 06:45:21;;;;;;;6.53;4.18;;;204.90;1843.20;;;;;;4914760;29;20039;-69
2021/01/21 06:47:47;;;;;;;6.88;4.68;;;204.90;1843.20;;;;;;4913190;29;20032;-69
2021/01/21 06:50:14;;;;;;;10.07;5.45;;;204.80;1843.20;;;;;;4912075;29;20445;-70
2021/01/21 06:52:40;;;;;;;9.15;5.30;;;204.80;1868.80;;;;;;4908910;29;20099;-80
2021/01/21 06:55:11;;;;;;;10.07;5.75;;;204.90;1843.20;;;;;;4913243;29;20032;-69
2021/01/21 06:57:36;;;;;;;8.75;4.68;;;204.90;1868.80;;;;;;4915164;29;20028;-69
2021/01/21 07:00:13;;;;;;;8.43;5.55;;;205.00;1843.20;;;;;;4910281;29;20054;-75
2021/01/21 07:02:46;;;;;;;7.65;4.53;;;205.00;1817.60;;;;;;4914716;29;20071;-78
2021/01/21 07:05:15;;;;;;;;;;;205.10;1817.60;;;;;;4914329;29;20390;-78
2021/01/21 07:08:01;;;;;;;8.05;4.38;;;205.10;1817.60;;;;;;4906779;29;20280;-74
2021/01/21 07:10:36;;;;;;;10.05;4.72;;;205.20;1817.60;;;;;;4912139;29;20040;-75
2021/01/21 07:13:11;;;;;;;8.57;4.80;;;205.30;1792.00;;;;;;4913538;29;20032;-78
2021/01/21 07:15:50;;;;;;;10.48;4.78;;;205.30;1817.60;;;;;;4911474;29;20554;-77
2021/01/21 07:18:20;;;;;;;15.90;6.93;;;205.40;1792.00;;;;;;4913985;29;20046;-81
2021/01/21 07:21:06;;;;;;;8.98;5.80;;;205.50;1766.40;;;;;;4912033;29;20478;-68
2021/01/21 07:23:50;;;;;;;10.73;4.85;;;205.60;1766.40;;;;;;4914014;29;20036;-66
2021/01/21 07:26:34;;;;;;;8.80;4.70;;;205.70;1740.80;;;;;;4912683;29;20115;-72
2021/01/21 07:29:16;;;;;;;7.38;4.28;;;205.70;1740.80;;;;;;4913134;29;20032;-71
2021/01/21 07:31:55;;;;;;;6.90;4.05;;;230.40;1715.20;;;;;;4914890;29;20466;-73
2021/01/21 07:34:24;;;;;;;6.75;4.18;;;230.40;1715.20;;;;;;4908516;29;20509;-72
2021/01/21 07:37:17;;;;;;;6.05;4.28;;;230.50;1689.60;;;;;;4911286;29;20475;-71
2021/01/21 07:40:07;;;;;;;7.40;4.93;;;230.60;1689.60;;;;;;4912798;29;20024;-71
2021/01/21 07:42:33;;;;;;;8.25;5.07;;;230.70;1689.60;;;;;;4837634;29;20034;-73
2021/01/21 07:45:02;;;;;;;13.18;7.25;;;230.80;1689.60;;;;;;4837320;29;20042;-72
2021/01/21 07:47:32;;;;;;;10.75;5.20;;;230.80;1664.00;;;;;;4836531;29;20050;-75
2021/01/21 07:50:16;;;;;;;8.15;5.03;;;230.90;1664.00;;;;;;4836477;29;20204;-70
2021/01/21 07:52:42;;;;;;;;;;;231.00;1664.00;;;;;;4834381;29;20057;-67
2021/01/21 07:55:08;;;;;;;13.55;5.70;;;231.00;1664.00;;;;;;4837982;29;19924;-67
2021/01/21 07:57:34;;;;;;;9.45;5.15;;;231.10;1664.00;;;;;;4848626;29;20034;-68
2021/01/21 08:00:11;;;;;;;14.35;5.78;;;231.10;1638.40;;;;;;4851466;29;20026;-67
2021/01/21 08:02:47;;;;;;;7.35;4.75;;;231.30;1638.40;;;;;;4841941;29;20030;-68
2021/01/21 08:05:14;;;;;;;8.82;5.30;;;256.00;1612.80;;;;;;4841632;29;20042;-68
2021/01/21 08:07:53;;;;;;;15.55;5.40;;;256.00;1638.40;;;;;;4841735;29;20114;-66
2021/01/21 08:10:21;;;;;;;10.13;5.47;;;256.00;1612.80;;;;;;4841009;29;20049;-69
2021/01/21 08:12:58;;;;;;;11.52;5.40;;;256.20;1612.80;;;;;;4841407;29;20045;-68
2021/01/21 08:15:25;;;;;;;11.88;4.65;;;256.30;1587.20;;;;;;4839414;29;20034;-69
2021/01/21 08:17:52;;;;;;;11.77;5.88;;;256.50;1561.60;;;;;;4841339;29;20079;-68
2021/01/21 08:20:20;;;;;;;8.00;4.50;;;256.90;1536.00;;;;;;4896768;29;20043;-72
2021/01/21 08:22:53;;;;;;;7.75;4.50;;;281.80;1561.60;;;;;;4918244;29;20117;-72
2021/01/21 08:25:19;;;;;;;14.93;5.45;;;282.10;1510.40;;;;;;4915717;29;20399;-70
2021/01/21 08:27:49;;;;;;;9.02;4.72;;;282.20;1510.40;;;;;;4916693;29;20040;-70
2021/01/21 08:30:19;;;;;;;6.30;4.18;;;282.40;1484.80;;;;;;4915109;29;20044;-71
2021/01/21 08:32:50;;;;;;;11.18;5.50;;;307.20;1510.40;;;;;;4915751;29;20370;-71
2021/01/21 08:35:20;;;;;;;9.88;4.88;;;307.40;1484.80;;;;;;4916597;29;20032;-72
2021/01/21 08:37:48;;;;;;;10.90;4.55;;;307.40;1484.80;;;;;;4912834;29;20031;-72
2021/01/21 08:40:16;;;;;;;8.95;4.40;;;307.30;1484.80;;;;;;4917975;29;20047;-72
2021/01/21 08:42:48;;;;;;;13.75;5.75;;;282.50;1484.80;;;;;;4922405;29;20028;-72
2021/01/21 08:45:14;;;;;;;10.50;4.70;;;282.20;1510.40;;;;;;4916487;29;20040;-72
2021/01/21 08:47:50;;;;;;;12.48;6.43;;;282.10;1536.00;;;;;;4916351;29;20117;-75
2021/01/21 08:50:18;;;;;;;11.50;5.38;;;282.00;1536.00;;;;;;4915529;29;20442;-71
2021/01/21 08:52:59;;;;;;;7.35;4.65;;;281.90;1536.00;;;;;;4913489;29;20402;-71
2021/01/21 08:55:38;;;;;;;28.05;14.27;;;281.80;1536.00;;;;;;4914992;29;20032;-70
2021/01/21 08:58:05;;;;;;;16.40;6.63;;;281.90;1536.00;;;;;;4915313;29;20039;-71
2021/01/21 09:00:32;;;;;;;9.68;4.72;;;282.00;1536.00;;;;;;4909797;29;20088;-72
2021/01/21 09:03:01;;;;;;;15.90;6.07;;;282.00;1536.00;;;;;;4915513;29;20024;-68
2021/01/21 09:05:27;;;;;;;11.85;5.80;;;282.10;1536.00;;;;;;4913970;29;20040;-68
2021/01/21 09:08:15;;;;;;;9.75;5.70;;;282.20;1536.00;;;;;;4914849;29;20040;-69
2021/01/21 09:10:46;;;;;;;17.55;5.47;;;282.30;1510.40;;;;;;4915244;29;20400;-67
2021/01/21 09:13:12;;;;;;;6.60;3.83;;;282.40;1536.00;;;;;;4916814;29;20482;-67
2021/01/21 09:15:58;;;;;;;20.27;4.95;;;282.40;1484.80;;;;;;4916407;29;20043;-68
2021/01/21 09:18:43;;;;;;;10.55;5.07;;;282.50;1484.80;;;;;;4912576;29;20032;-68
2021/01/21 09:21:17;;;;;;;14.60;6.57;;;307.20;1510.40;;;;;;4915878;29;20119;-67
2021/01/21 09:23:43;;;;;;;;;;;307.20;1510.40;;;;;;4913431;29;20028;-68
2021/01/21 09:26:13;;;;;;;12.70;6.90;;;307.20;1510.40;;;;;;4914458;29;19915;-68
2021/01/21 09:28:52;;;;;;;14.20;7.68;;;307.20;1536.00;;;;;;4914412;29;20510;-67
2021/01/21 09:31:21;;;;;;;16.27;6.45;;;307.20;1510.40;;;;;;4915886;29;20055;-67
2021/01/21 09:33:49;;;;;;;16.23;6.15;;;307.20;1510.40;;;;;;4914968;29;20072;-69
2021/01/21 09:36:14;;;;;;;13.43;4.40;;;307.20;1536.00;;;;;;4911169;29;20143;-70
2021/01/21 09:38:40;;;;;;;7.72;4.88;;;307.20;1536.00;;;;;;4909999;29;20111;-73
2021/01/21 09:41:06;;;;;;;10.73;4.70;;;307.20;1536.00;;;;;;4912414;29;20113;-70
2021/01/21 09:43:31;;;;;;;13.25;5.72;;;307.20;1510.40;;;;;;4915932;29;20035;-71
2021/01/21 09:45:57;;;;;;;7.72;4.40;;;282.50;1510.40;;;;;;4912436;29;20798;-72
2021/01/21 09:48:24;;;;;;;8.90;4.63;;;282.50;1510.40;;;;;;4911158;29;20028;-71
2021/01/21 09:50:53;;;;;;;12.68;5.70;;;282.40;1510.40;;;;;;4906876;29;20046;-71
2021/01/21 09:53:19;;;;;;;11.05;4.55;;;282.40;1536.00;;;;;;4908690;29;20059;-70
2021/01/21 09:55:44;;;;;;;6.55;4.05;;;282.40;1510.40;;;;;;4915935;29;20032;-72
2021/01/21 09:58:10;;;;;;;14.32;5.95;;;282.40;1510.40;;;;;;4914313;29;20036;-73
2021/01/21 10:00:36;;;;;;;10.75;5.13;;;282.40;1510.40;;;;;;4916428;29;20509;-72
2021/01/21 10:03:02;;;;;;;12.52;5.18;;;282.40;1510.40;;;;;;4915853;29;20040;-72
2021/01/21 10:05:27;;;;;;;10.82;4.97;;;282.40;1536.00;;;;;;4911701;29;20635;-71
2021/01/21 10:07:53;;;;;;;13.30;5.10;;;282.50;1536.00;;;;;;4914277;29;20028;-70
2021/01/21 10:10:19;;;;;;;15.73;4.95;;;282.50;1510.40;;;;;;4914501;29;20071;-71
2021/01/21 10:12:44;;;;;;;20.85;5.68;;;282.50;1510.40;;;;;;4916415;29;20032;-69
2021/01/21 10:15:10;;;;;;;11.13;4.90;;;307.20;1561.60;;;;;;4915036;29;20028;-69
2021/01/21 10:17:36;;;;;;;12.50;4.03;;;307.20;1561.60;;;;;;4915831;29;20064;-74
2021/01/21 10:20:03;;;;;;;11.77;4.30;;;307.20;1536.00;;;;;;4914798;29;20379;-76
2021/01/21 10:22:29;;;;;;;10.60;5.60;;;307.20;1536.00;;;;;;4916470;29;20107;-76
2021/01/21 10:24:54;;;;;;;17.15;6.85;;;307.20;1536.00;;;;;;4913157;29;20039;-69
2021/01/21 10:27:26;;;;;;;11.45;4.40;;;307.20;1536.00;;;;;;4917695;29;20061;-75
2021/01/21 10:29:53;;;;;;;10.75;4.70;;;307.20;1536.00;;;;;;4912595;29;20028;-78
2021/01/21 10:32:18;;;;;;;17.08;7.43;;;307.20;1536.00;;;;;;4902812;29;20092;-76
2021/01/21 10:34:44;;;;;;;11.95;6.85;;;307.30;1536.00;;;;;;4902223;29;20024;-78
2021/01/21 10:37:10;;;;;;;14.15;6.25;;;307.30;1536.00;;;;;;4904873;29;20032;-79
2021/01/21 10:39:35;;;;;;;22.63;8.20;;;307.30;1536.00;;;;;;4900736;29;20036;-78
2021/01/21 10:42:01;;;;;;;11.10;4.97;;;307.40;1536.00;;;;;;4900166;29;20021;-68
2021/01/21 10:44:27;;;;;;;23.27;9.77;;;307.40;1536.00;;;;;;4904638;29;21009;-73
2021/01/21 10:46:53;;;;;;;20.70;7.90;;;307.40;1536.00;;;;;;4909223;29;20031;-76
2021/01/21 10:49:18;;;;;;;34.88;10.23;;;307.40;1536.00;;;;;;4902961;29;20092;-72
2021/01/21 10:51:45;;;;;;;43.22;15.90;;;307.50;1510.40;;;;;;4897281;29;20490;-70
2021/01/21 10:54:11;;;;;;;31.85;18.17;;;307.40;1510.40;;;;;;4901315;29;20475;-68
2021/01/21 10:56:37;;;;;;;40.60;21.67;;;307.50;1536.00;;;;;;4897909;29;20084;-64
2021/01/21 10:59:05;;;;;;;46.53;23.67;;;307.60;1510.40;;;;;;4899479;29;20028;-66
2021/01/21 11:01:31;;;;;;;12.80;7.68;;;307.60;1510.40;;;;;;4907424;29;20036;-66
2021/01/21 11:03:57;;;;;;;22.73;13.57;;;307.70;1510.40;;;;;;4903821;29;20032;-66
2021/01/21 11:06:23;;;;;;;23.33;10.68;;;307.60;1510.40;;;;;;4901525;29;20083;-67
2021/01/21 11:08:49;;;;;;;18.60;7.25;;;307.70;1510.40;;;;;;4891778;29;20044;-72
2021/01/21 11:11:14;;;;;;;17.48;7.55;;;307.70;1484.80;;;;;;4906831;29;20510;-75
2021/01/21 11:13:40;;;;;;;5.90;3.55;;;307.70;1510.40;;;;;;4901411;29;20432;-72
2021/01/21 11:16:07;;;;;;;15.00;6.30;;;307.70;1484.80;;;;;;4903463;29;20036;-69
2021/01/21 11:18:33;;;;;;;48.85;24.65;;;307.70;1484.80;;;;;;4904421;29;20382;-74
2021/01/21 11:20:59;;;;;;;26.90;7.65;;;307.80;1459.20;;;;;;4902507;29;20033;-72
2021/01/21 11:23:24;;;;;;;26.45;8.73;;;307.80;1484.80;;;;;;4900131;29;20108;-67
2021/01/21 11:25:50;;;;;;;6.28;3.03;;;307.80;1484.80;;;;;;4900444;29;20028;-68
2021/01/21 11:28:22;;;;;;;17.20;5.07;;;307.90;1459.20;;;;;;4897415;29;20104;-78
2021/01/21 11:30:51;;;;;;;14.80;5.60;;;307.80;1484.80;;;;;;4899275;29;20036;-79
2021/01/21 11:33:17;;;;;;;30.00;10.98;;;307.90;1484.80;;;;;;4901182;29;20092;-69
2021/01/21 11:35:42;;;;;;;12.30;4.07;;;307.90;1484.80;;;;;;4903853;29;20036;-68
2021/01/21 11:38:08;;;;;;;7.20;3.83;;;307.90;1484.80;;;;;;4902599;29;20032;-67
2021/01/21 11:40:34;;;;;;;26.02;14.13;;;307.90;1484.80;;;;;;4902467;29;20040;-67
2021/01/21 11:42:59;;;;;;;16.48;5.93;;;307.90;1484.80;;;;;;4887209;29;20040;-67
2021/01/21 11:45:25;;;;;;;10.48;5.22;;;307.90;1484.80;;;;;;4905761;29;20346;-68
2021/01/21 11:47:51;;;;;;;24.10;7.07;;;307.90;1484.80;;;;;;4907152;29;20054;-65
2021/01/21 11:50:17;;;;;;;17.67;4.28;;;308.00;1484.80;;;;;;4908193;29;20055;-66
2021/01/21 11:52:43;;;;;;;21.05;6.38;;;308.00;1484.80;;;;;;4903801;29;20067;-67
2021/01/21 11:55:11;;;;;;;17.38;5.25;;;308.00;1484.80;;;;;;4907619;29;20566;-77
2021/01/21 11:57:37;;;;;;;9.07;5.93;;;308.00;1484.80;;;;;;4902177;29;20119;-65
2021/01/21 12:00:07;;;;;;;17.15;5.72;;;308.00;1484.80;;;;;;4900309;29;20554;-63
2021/01/21 12:02:33;;;;;;;24.40;6.13;;;308.00;1484.80;;;;;;4901815;29;20032;-64
2021/01/21 12:04:59;;;;;;;16.52;5.30;;;308.00;1484.80;;;;;;4901184;29;20033;-65
2021/01/21 12:07:24;;;;;;;9.40;5.40;;;308.00;1510.40;;;;;;4910239;29;20099;-67
2021/01/21 12:09:50;;;;;;;21.05;7.35;;;308.10;1510.40;;;;;;4901223;29;20632;-63
2021/01/21 12:12:16;;;;;;;37.50;9.52;;;308.10;1536.00;;;;;;4904000;29;20466;-66
2021/01/21 12:14:42;;;;;;;21.85;13.25;;;308.10;1536.00;;;;;;4905345;29;20032;-64
2021/01/21 12:17:07;;;;;;;15.23;5.43;;;332.80;1484.80;;;;;;4905093;29;20036;-64
2021/01/21 12:19:33;;;;;;;23.50;7.78;;;332.80;1536.00;;;;;;4897293;29;20032;-64
2021/01/21 12:21:59;;;;;;;18.92;9.23;;;332.80;1561.60;;;;;;4903463;29;20044;-64
2021/01/21 12:24:24;;;;;;;14.45;5.80;;;332.80;1561.60;;;;;;4903005;29;20115;-77